Time;durP1;ratioP1;P1;durP2;ratioP2;P2;SDS_P1;SDS_P2;PMS_P1;PMS_P2;Temp;Humidity;BMP_temperature;BMP_pressure;BME280_temperature;BME280_humidity;BME280_pressure;Samples;Min_cycle;Max_cycle;Signal;HPM_P1;HPM_P2
2021/10/12 00:01:18;;;;;;;19.88;7.88;;;;;;;;;;5033221;28;20368;-53
2021/10/12 00:03:44;;;;;;;16.98;6.85;;;;;;;;;;5034198;28;20029;-53
2021/10/12 00:06:11;;;;;;;18.23;6.97;;;;;;;;;;5035069;28;20033;-53
2021/10/12 00:08:37;;;;;;;17.27;6.38;;;;;;;;;;5035140;28;20021;-53
2021/10/12 00:11:03;;;;;;;15.85;6.35;;;;;;;;;;5035213;28;20032;-53
2021/10/12 00:13:29;;;;;;;13.27;5.82;;;;;;;;;;5034168;28;20026;-54
2021/10/12 00:15:55;;;;;;;15.27;7.18;;;;;;;;;;5034385;28;20042;-53
2021/10/12 00:18:21;;;;;;;15.18;6.13;;;;;;;;;;5035131;28;20084;-53
2021/10/12 00:20:48;;;;;;;15.95;6.30;;;;;;;;;;5034703;28;20272;-53
2021/10/12 00:23:14;;;;;;;12.48;5.63;;;;;;;;;;5034856;28;20067;-53
2021/10/12 00:25:39;;;;;;;19.15;7.20;;;;;;;;;;5033999;28;20390;-53
2021/10/12 00:28:05;;;;;;;14.35;7.03;;;;;;;;;;5035113;28;20032;-53
2021/10/12 00:30:31;;;;;;;11.10;5.47;;;;;;;;;;5034352;28;20473;-53
2021/10/12 00:32:57;;;;;;;19.13;6.88;;;;;;;;;;5034612;28;20029;-53
2021/10/12 00:35:24;;;;;;;18.27;6.57;;;;;;;;;;5033783;28;20083;-53
2021/10/12 00:37:50;;;;;;;14.13;6.38;;;;;;;;;;5035134;28;20036;-53
2021/10/12 00:40:16;;;;;;;14.23;6.88;;;;;;;;;;5034252;28;20021;-53
2021/10/12 00:42:42;;;;;;;19.05;6.65;;;;;;;;;;5034769;28;20021;-54
2021/10/12 00:45:10;;;;;;;15.43;6.80;;;;;;;;;;5032961;28;20053;-54
2021/10/12 00:47:36;;;;;;;15.45;6.93;;;;;;;;;;5034057;28;20029;-54
2021/10/12 00:50:03;;;;;;;12.45;5.35;;;;;;;;;;5034224;28;20040;-53
2021/10/12 00:52:29;;;;;;;13.55;5.65;;;;;;;;;;5034570;28;20022;-54
2021/10/12 00:54:55;;;;;;;13.90;5.40;;;;;;;;;;5033611;28;20116;-53
2021/10/12 00:57:21;;;;;;;9.95;4.88;;;;;;;;;;5034048;28;20056;-53
2021/10/12 00:59:47;;;;;;;14.10;5.93;;;;;;;;;;5034167;28;20486;-53
2021/10/12 01:02:13;;;;;;;11.05;5.03;;;;;;;;;;5031056;28;20026;-53
2021/10/12 01:04:39;;;;;;;15.45;6.35;;;;;;;;;;5033102;28;20029;-53
2021/10/12 01:07:05;;;;;;;12.07;6.38;;;;;;;;;;5034269;28;20051;-53
2021/10/12 01:09:31;;;;;;;12.88;5.53;;;;;;;;;;5033656;28;20526;-53
2021/10/12 01:11:59;;;;;;;13.80;6.47;;;;;;;;;;5033999;28;20029;-53
2021/10/12 01:14:25;;;;;;;16.10;6.85;;;;;;;;;;5032916;28;20038;-53
2021/10/12 01:16:51;;;;;;;19.02;6.55;;;;;;;;;;5033590;28;20374;-53
2021/10/12 01:19:17;;;;;;;15.10;6.07;;;;;;;;;;5033941;28;20025;-54
2021/10/12 01:21:44;;;;;;;16.55;6.88;;;;;;;;;;5033280;28;20029;-54
2021/10/12 01:24:11;;;;;;;14.38;6.75;;;;;;;;;;5032750;28;20028;-53
2021/10/12 01:26:38;;;;;;;18.17;6.80;;;;;;;;;;5033875;28;20120;-53
2021/10/12 01:29:05;;;;;;;12.52;6.72;;;;;;;;;;5033588;28;20075;-53
2021/10/12 01:31:31;;;;;;;13.00;6.15;;;;;;;;;;5033338;28;20096;-54
2021/10/12 01:33:57;;;;;;;14.10;5.95;;;;;;;;;;5032425;28;20112;-53
2021/10/12 01:36:23;;;;;;;16.33;6.85;;;;;;;;;;5033628;28;20029;-53
2021/10/12 01:38:49;;;;;;;15.68;5.95;;;;;;;;;;5033347;28;20083;-54
2021/10/12 01:41:16;;;;;;;16.20;7.28;;;;;;;;;;5033288;28;20053;-53
2021/10/12 01:43:42;;;;;;;14.43;6.20;;;;;;;;;;5032922;28;20025;-53
2021/10/12 01:46:08;;;;;;;12.25;5.65;;;;;;;;;;5033662;28;20025;-54
2021/10/12 01:48:35;;;;;;;14.18;5.47;;;;;;;;;;5032885;28;20351;-54
2021/10/12 01:51:01;;;;;;;14.60;6.03;;;;;;;;;;5032991;28;20523;-53
2021/10/12 01:53:27;;;;;;;13.88;7.05;;;;;;;;;;5032808;28;20113;-53
2021/10/12 01:55:53;;;;;;;26.50;7.38;;;;;;;;;;5032811;28;20517;-53
2021/10/12 01:58:19;;;;;;;18.27;7.10;;;;;;;;;;5033165;28;20030;-54
2021/10/12 02:00:46;;;;;;;14.13;6.13;;;;;;;;;;5033278;28;20025;-54
2021/10/12 02:03:12;;;;;;;18.40;6.10;;;;;;;;;;5031151;28;20056;-53
2021/10/12 02:05:38;;;;;;;17.60;5.97;;;;;;;;;;5032069;28;20026;-53
2021/10/12 02:08:04;;;;;;;13.50;6.45;;;;;;;;;;5027002;28;20029;-53
2021/10/12 02:10:30;;;;;;;11.82;6.35;;;;;;;;;;5032956;28;20067;-53
2021/10/12 02:12:56;;;;;;;11.88;5.88;;;;;;;;;;5032863;28;20148;-54
2021/10/12 02:15:22;;;;;;;17.92;7.32;;;;;;;;;;5032082;28;20038;-53
2021/10/12 02:17:48;;;;;;;15.55;6.32;;;;;;;;;;5032680;28;20026;-53
2021/10/12 02:20:14;;;;;;;13.07;6.80;;;;;;;;;;5032871;28;20017;-54
2021/10/12 02:22:41;;;;;;;14.13;6.60;;;;;;;;;;5032869;28;20053;-54
2021/10/12 02:25:08;;;;;;;18.45;7.13;;;;;;;;;;5031930;28;20036;-53
2021/10/12 02:27:34;;;;;;;15.52;7.63;;;;;;;;;;5037317;28;20024;-53
2021/10/12 02:30:00;;;;;;;19.92;7.88;;;;;;;;;;5036645;28;20459;-53
2021/10/12 02:32:26;;;;;;;14.40;6.20;;;;;;;;;;5037056;28;20021;-53
2021/10/12 02:34:52;;;;;;;16.17;7.00;;;;;;;;;;5035740;28;20044;-54
2021/10/12 02:37:19;;;;;;;15.02;7.43;;;;;;;;;;5036748;28;20022;-53
2021/10/12 02:39:45;;;;;;;17.27;6.72;;;;;;;;;;5035783;28;20049;-53
2021/10/12 02:42:12;;;;;;;17.30;6.85;;;;;;;;;;5056342;28;20043;-54
2021/10/12 02:44:38;;;;;;;17.02;6.90;;;;;;;;;;5055872;28;20047;-53
2021/10/12 02:47:04;;;;;;;19.40;7.15;;;;;;;;;;5056532;28;20021;-53
2021/10/12 02:49:30;;;;;;;26.75;7.80;;;;;;;;;;5056276;28;20544;-53
2021/10/12 02:51:56;;;;;;;18.23;7.47;;;;;;;;;;5056317;28;20100;-53
2021/10/12 02:54:22;;;;;;;17.95;7.30;;;;;;;;;;5055653;28;20057;-54
2021/10/12 02:56:48;;;;;;;15.02;6.85;;;;;;;;;;5056452;28;20036;-53
2021/10/12 02:59:14;;;;;;;21.90;7.85;;;;;;;;;;5056619;28;20021;-53
2021/10/12 03:01:40;;;;;;;18.95;7.10;;;;;;;;;;5054305;28;20033;-54
2021/10/12 03:04:06;;;;;;;15.73;6.63;;;;;;;;;;5055537;28;20089;-53
2021/10/12 03:06:32;;;;;;;13.73;6.70;;;;;;;;;;5056529;28;20439;-53
2021/10/12 03:08:58;;;;;;;19.08;7.10;;;;;;;;;;5055695;28;20029;-53
2021/10/12 03:11:24;;;;;;;15.77;6.35;;;;;;;;;;5056344;28;20025;-53
2021/10/12 03:13:50;;;;;;;15.55;7.50;;;;;;;;;;5054773;28;20036;-54
2021/10/12 03:16:16;;;;;;;20.02;7.63;;;;;;;;;;5056055;28;20025;-53
2021/10/12 03:18:42;;;;;;;19.58;7.90;;;;;;;;;;5056177;28;20017;-53
2021/10/12 03:21:08;;;;;;;19.08;7.13;;;;;;;;;;5043673;28;20018;-53
2021/10/12 03:23:34;;;;;;;20.95;8.23;;;;;;;;;;5035169;28;20056;-53
2021/10/12 03:26:01;;;;;;;14.70;7.53;;;;;;;;;;5035798;28;20037;-54
2021/10/12 03:28:27;;;;;;;17.40;6.40;;;;;;;;;;5035562;28;20025;-53
2021/10/12 03:30:53;;;;;;;16.15;6.45;;;;;;;;;;5035467;28;20458;-54
2021/10/12 03:33:19;;;;;;;16.05;6.88;;;;;;;;;;5035801;28;20025;-53
2021/10/12 03:35:57;;;;;;;15.73;7.30;;;;;;;;;;5034817;28;20582;-54
2021/10/12 03:38:27;;;;;;;16.85;7.38;;;;;;;;;;5035477;28;20021;-54
2021/10/12 03:40:53;;;;;;;19.90;6.85;;;;;;;;;;5035539;28;20434;-54
2021/10/12 03:43:20;;;;;;;18.50;7.97;;;;;;;;;;5035427;28;20340;-53
2021/10/12 03:45:46;;;;;;;19.90;7.03;;;;;;;;;;5035254;28;20196;-53
2021/10/12 03:48:12;;;;;;;17.65;7.10;;;;;;;;;;5035564;28;20033;-53
2021/10/12 03:50:38;;;;;;;16.92;7.50;;;;;;;;;;5035098;28;20108;-53
2021/10/12 03:53:04;;;;;;;14.50;7.63;;;;;;;;;;5035441;28;20044;-53
2021/10/12 03:55:30;;;;;;;15.90;7.45;;;;;;;;;;5034652;28;20033;-53
2021/10/12 03:57:56;;;;;;;15.52;7.03;;;;;;;;;;5035545;28;20029;-54
2021/10/12 04:00:23;;;;;;;20.98;7.35;;;;;;;;;;5035452;28;20489;-53
2021/10/12 04:02:48;;;;;;;19.77;7.80;;;;;;;;;;5034860;28;20506;-53
2021/10/12 04:05:15;;;;;;;15.20;7.68;;;;;;;;;;5034509;28;20029;-53
2021/10/12 04:07:42;;;;;;;23.80;8.52;;;;;;;;;;5034733;28;20379;-53
2021/10/12 04:10:08;;;;;;;22.35;7.60;;;;;;;;;;5035020;28;20117;-53
2021/10/12 04:12:34;;;;;;;13.48;6.38;;;;;;;;;;5035161;28;20021;-53
2021/10/12 04:15:00;;;;;;;16.85;7.85;;;;;;;;;;5034174;28;20147;-53
2021/10/12 04:17:26;;;;;;;18.33;6.65;;;;;;;;;;5035142;28;20049;-53
2021/10/12 04:19:52;;;;;;;11.77;6.57;;;;;;;;;;5034985;28;20041;-53
2021/10/12 04:22:18;;;;;;;14.38;6.25;;;;;;;;;;5034392;28;20080;-53
2021/10/12 04:24:44;;;;;;;18.75;8.27;;;;;;;;;;5033715;28;20148;-53
2021/10/12 04:27:10;;;;;;;19.75;6.53;;;;;;;;;;5035227;28;20045;-53
2021/10/12 04:29:36;;;;;;;23.63;10.27;;;;;;;;;;5034630;28;20341;-53
2021/10/12 04:32:03;;;;;;;23.05;9.73;;;;;;;;;;5034779;28;20025;-53
2021/10/12 04:34:29;;;;;;;20.35;7.30;;;;;;;;;;5033526;28;20084;-53
2021/10/12 04:36:55;;;;;;;19.60;8.18;;;;;;;;;;5034383;28;20347;-53
2021/10/12 04:39:21;;;;;;;21.13;7.80;;;;;;;;;;5034186;28;20029;-53
2021/10/12 04:41:49;;;;;;;19.45;7.53;;;;;;;;;;5034479;28;20458;-53
2021/10/12 04:44:15;;;;;;;17.98;7.22;;;;;;;;;;5033784;28;20083;-53
2021/10/12 04:46:41;;;;;;;21.02;7.85;;;;;;;;;;5034548;28;20336;-53
2021/10/12 04:49:08;;;;;;;12.70;5.57;;;;;;;;;;5033287;28;20025;-53
2021/10/12 04:51:34;;;;;;;14.32;7.00;;;;;;;;;;5033782;28;20082;-54
2021/10/12 04:54:00;;;;;;;13.77;6.65;;;;;;;;;;5032926;28;20452;-53
2021/10/12 04:56:26;;;;;;;14.88;6.47;;;;;;;;;;5034302;28;20029;-53
2021/10/12 04:58:52;;;;;;;13.40;6.47;;;;;;;;;;5034088;28;20021;-54
2021/10/12 05:01:18;;;;;;;15.15;5.97;;;;;;;;;;5034076;28;20025;-53
2021/10/12 05:03:44;;;;;;;13.43;5.43;;;;;;;;;;5033363;28;20022;-54
2021/10/12 05:06:10;;;;;;;13.15;5.07;;;;;;;;;;5033695;28;20111;-53
2021/10/12 05:08:36;;;;;;;11.43;5.43;;;;;;;;;;5033978;28;20029;-53
2021/10/12 05:11:02;;;;;;;12.43;5.93;;;;;;;;;;5032560;28;20022;-53
2021/10/12 05:13:28;;;;;;;10.85;5.72;;;;;;;;;;5033632;28;20029;-53
2021/10/12 05:15:54;;;;;;;13.82;6.18;;;;;;;;;;5033410;28;20466;-53
2021/10/12 05:18:26;;;;;;;13.07;5.60;;;;;;;;;;5033651;28;20025;-53
2021/10/12 05:20:52;;;;;;;12.55;5.78;;;;;;;;;;5033125;28;20343;-54
2021/10/12 05:23:18;;;;;;;14.32;6.53;;;;;;;;;;5033643;28;20076;-53
2021/10/12 05:25:46;;;;;;;17.88;7.00;;;;;;;;;;5033193;28;20029;-53
2021/10/12 05:28:12;;;;;;;13.13;5.28;;;;;;;;;;5033517;28;20443;-53
2021/10/12 05:30:41;;;;;;;16.88;5.53;;;;;;;;;;5033416;28;20041;-53
2021/10/12 05:33:08;;;;;;;12.85;4.80;;;;;;;;;;5033499;28;20033;-53
2021/10/12 05:35:34;;;;;;;18.77;6.10;;;;;;;;;;5032491;28;20053;-53
2021/10/12 05:38:01;;;;;;;10.82;4.95;;;;;;;;;;5033389;28;20053;-53
2021/10/12 05:40:27;;;;;;;12.18;5.45;;;;;;;;;;5033461;28;20037;-53
2021/10/12 05:42:53;;;;;;;10.43;5.78;;;;;;;;;;5033263;28;20021;-54
2021/10/12 05:45:19;;;;;;;15.10;6.40;;;;;;;;;;5032531;28;20026;-53
2021/10/12 05:47:45;;;;;;;17.35;6.40;;;;;;;;;;5033098;28;20025;-53
2021/10/12 05:50:11;;;;;;;13.63;6.43;;;;;;;;;;5033301;28;20112;-53
2021/10/12 05:52:39;;;;;;;16.08;6.45;;;;;;;;;;5032906;28;20045;-53
2021/10/12 05:55:16;;;;;;;14.30;6.90;;;;;;;;;;5032417;28;20042;-53
2021/10/12 06:00:08;;;;;;;11.65;5.93;;;;;;;;;;5033294;28;20126;-54
2021/10/12 06:02:34;;;;;;;16.85;5.60;;;;;;;;;;5032818;28;20324;-53
2021/10/12 06:05:00;;;;;;;12.13;4.75;;;;;;;;;;5032360;28;20120;-53
2021/10/12 06:07:26;;;;;;;6.53;4.07;;;;;;;;;;5033328;28;20044;-53
2021/10/12 06:09:52;;;;;;;11.00;5.30;;;;;;;;;;5032853;28;20443;-53
2021/10/12 06:12:18;;;;;;;10.77;5.28;;;;;;;;;;5033113;28;20037;-54
2021/10/12 06:14:44;;;;;;;16.58;6.13;;;;;;;;;;5032310;28;20057;-53
2021/10/12 06:17:10;;;;;;;12.18;4.57;;;;;;;;;;5032884;28;20300;-53
2021/10/12 06:19:36;;;;;;;10.18;5.15;;;;;;;;;;5032916;28;20021;-53
2021/10/12 06:22:02;;;;;;;7.78;4.28;;;;;;;;;;5032825;28;20078;-53
2021/10/12 06:24:28;;;;;;;10.57;4.93;;;;;;;;;;5031835;28;20363;-53
2021/10/12 06:26:54;;;;;;;10.50;4.78;;;;;;;;;;5033185;28;20465;-53
2021/10/12 06:29:20;;;;;;;11.18;4.63;;;;;;;;;;5032732;28;20056;-54
2021/10/12 06:31:46;;;;;;;12.77;4.32;;;;;;;;;;5032150;28;20025;-53
2021/10/12 06:34:12;;;;;;;11.90;5.38;;;;;;;;;;5032288;28;20087;-53
2021/10/12 06:36:41;;;;;;;13.82;5.30;;;;;;;;;;5033030;28;20427;-53
2021/10/12 06:39:07;;;;;;;11.73;4.72;;;;;;;;;;5032655;28;20380;-54
2021/10/12 06:41:33;;;;;;;6.40;4.18;;;;;;;;;;5032501;28;20116;-53
2021/10/12 06:44:00;;;;;;;11.02;4.72;;;;;;;;;;5032251;28;20113;-54
2021/10/12 06:46:26;;;;;;;8.30;4.15;;;;;;;;;;5032369;28;20029;-54
2021/10/12 06:48:52;;;;;;;12.27;4.57;;;;;;;;;;5032919;28;20037;-53
2021/10/12 06:51:18;;;;;;;9.77;3.80;;;;;;;;;;5032683;28;20014;-53
2021/10/12 06:53:46;;;;;;;6.00;3.65;;;;;;;;;;5030422;28;20029;-54
2021/10/12 06:56:12;;;;;;;6.78;4.03;;;;;;;;;;5032303;28;20052;-54
2021/10/12 06:58:38;;;;;;;8.10;4.07;;;;;;;;;;5032775;28;20117;-54
2021/10/12 07:01:04;;;;;;;6.70;4.22;;;;;;;;;;5032594;28;20029;-54
2021/10/12 07:03:30;;;;;;;12.82;5.90;;;;;;;;;;5031943;28;20053;-53
2021/10/12 07:05:57;;;;;;;10.68;4.75;;;;;;;;;;5032194;28;20025;-53
2021/10/12 07:08:23;;;;;;;15.70;6.13;;;;;;;;;;5032628;28;20359;-53
2021/10/12 07:10:49;;;;;;;15.88;5.65;;;;;;;;;;5032066;28;20036;-53
2021/10/12 07:13:15;;;;;;;13.93;5.47;;;;;;;;;;5035741;28;20022;-53
2021/10/12 07:15:41;;;;;;;14.30;4.90;;;;;;;;;;5035221;28;20455;-53
2021/10/12 07:18:11;;;;;;;13.07;4.78;;;;;;;;;;5036272;28;20120;-53
2021/10/12 07:20:39;;;;;;;14.67;4.43;;;;;;;;;;5036123;28;20034;-53
2021/10/12 07:23:07;;;;;;;9.70;3.92;;;;;;;;;;5036100;28;20332;-54
2021/10/12 07:25:33;;;;;;;14.50;4.97;;;;;;;;;;5035243;28;20112;-54
2021/10/12 07:27:59;;;;;;;9.50;3.50;;;;;;;;;;5035711;28;20068;-53
2021/10/12 07:30:25;;;;;;;9.25;2.90;;;;;;;;;;5035714;28;20037;-53
2021/10/12 07:32:51;;;;;;;3.80;2.10;;;;;;;;;;5035992;28;20025;-53
2021/10/12 07:35:17;;;;;;;8.70;2.72;;;;;;;;;;5034846;28;20067;-54
2021/10/12 07:37:43;;;;;;;3.42;1.98;;;;;;;;;;5035874;28;20053;-54
2021/10/12 07:40:10;;;;;;;3.58;2.00;;;;;;;;;;5035447;28;20036;-54
2021/10/12 07:42:36;;;;;;;5.95;2.28;;;;;;;;;;5035080;28;20026;-54
2021/10/12 07:45:03;;;;;;;4.10;1.75;;;;;;;;;;5035060;28;20113;-53
2021/10/12 07:47:29;;;;;;;4.65;1.92;;;;;;;;;;5035426;28;20428;-53
2021/10/12 07:49:55;;;;;;;3.55;1.58;;;;;;;;;;5035623;28;20109;-53
2021/10/12 07:52:21;;;;;;;3.65;1.30;;;;;;;;;;5035201;28;20401;-53
2021/10/12 07:57:31;;;;;;;6.75;1.70;;;;;;;;;;5035315;28;20022;-53
2021/10/12 07:59:57;;;;;;;3.55;1.60;;;;;;;;;;5035449;28;20360;-53
2021/10/12 08:02:23;;;;;;;3.08;1.42;;;;;;;;;;5035146;28;20113;-53
2021/10/12 08:04:49;;;;;;;5.93;1.73;;;;;;;;;;5034746;28;20021;-53
2021/10/12 08:07:15;;;;;;;1.30;1.20;;;;;;;;;;5035118;28;20026;-53
2021/10/12 08:09:41;;;;;;;1.27;1.10;;;;;;;;;;5034844;28;20060;-53
2021/10/12 08:12:08;;;;;;;1.70;1.02;;;;;;;;;;5034607;28;20328;-53
2021/10/12 08:14:39;;;;;;;1.38;1.08;;;;;;;;;;5034276;28;20025;-53
2021/10/12 08:17:05;;;;;;;2.05;1.13;;;;;;;;;;5034976;28;20355;-53
2021/10/12 08:19:31;;;;;;;3.28;1.20;;;;;;;;;;5035068;28;20026;-53
2021/10/12 08:21:57;;;;;;;2.15;1.30;;;;;;;;;;5034334;28;20075;-53
2021/10/12 08:24:23;;;;;;;5.90;1.45;;;;;;;;;;5033078;28;20029;-53
2021/10/12 08:26:50;;;;;;;3.45;1.50;;;;;;;;;;5034860;28;20021;-53
2021/10/12 08:29:16;;;;;;;0.80;0.77;;;;;;;;;;5034986;28;20411;-54
2021/10/12 08:31:42;;;;;;;1.48;1.00;;;;;;;;;;5034567;28;20036;-53
2021/10/12 08:34:08;;;;;;;1.52;1.00;;;;;;;;;;5034295;28;20028;-53
2021/10/12 08:36:37;;;;;;;11.38;1.65;;;;;;;;;;5034725;28;20032;-54
2021/10/12 08:39:03;;;;;;;3.50;2.00;;;;;;;;;;5034841;28;20037;-54
2021/10/12 08:41:30;;;;;;;1.30;0.90;;;;;;;;;;5034254;28;20086;-53
2021/10/12 08:43:57;;;;;;;1.52;1.00;;;;;;;;;;5034205;28;20033;-54
2021/10/12 08:46:27;;;;;;;1.77;1.10;;;;;;;;;;5034799;28;20029;-54
2021/10/12 08:48:56;;;;;;;1.20;0.93;;;;;;;;;;5034253;28;20074;-53
2021/10/12 08:51:23;;;;;;;2.83;1.13;;;;;;;;;;5034106;28;20087;-53
2021/10/12 08:53:49;;;;;;;2.83;0.75;;;;;;;;;;5033937;28;20052;-54
2021/10/12 08:56:15;;;;;;;1.02;0.93;;;;;;;;;;5033866;28;20032;-53
2021/10/12 08:58:41;;;;;;;1.67;1.10;;;;;;;;;;5034473;28;20022;-54
2021/10/12 09:01:08;;;;;;;3.60;0.98;;;;;;;;;;5034354;28;20029;-53
2021/10/12 09:03:47;;;;;;;2.13;1.08;;;;;;;;;;5033712;28;20028;-53
2021/10/12 09:06:13;;;;;;;1.45;1.30;;;;;;;;;;5034406;28;20029;-54
2021/10/12 09:08:40;;;;;;;0.77;0.68;;;;;;;;;;5034098;28;20032;-53
2021/10/12 09:11:07;;;;;;;3.35;1.42;;;;;;;;;;5033748;28;20032;-53
2021/10/12 09:13:43;;;;;;;5.15;1.42;;;;;;;;;;5033431;28;20022;-53
2021/10/12 09:16:16;;;;;;;1.05;0.95;;;;;;;;;;5033330;28;20363;-54
2021/10/12 09:18:55;;;;;;;1.92;1.00;;;;;;;;;;5034156;28;20355;-53
2021/10/12 09:21:32;;;;;;;3.05;1.40;;;;;;;;;;5033924;28;20129;-53
2021/10/12 09:24:01;;;;;;;5.05;1.35;;;;;;;;;;5033392;28;20025;-53
2021/10/12 09:26:28;;;;;;;1.47;1.33;;;;;;;;;;5033346;28;20455;-54
2021/10/12 09:29:03;;;;;;;2.55;1.52;;;;;;;;;;5033536;28;20402;-54
2021/10/12 09:31:33;;;;;;;1.67;1.08;;;;;;;;;;5033679;28;20037;-53
2021/10/12 09:34:01;;;;;;;1.30;1.17;;;;;;;;;;5032194;28;20525;-53
2021/10/12 09:36:32;;;;;;;1.33;1.00;;;;;;;;;;5033642;28;20040;-53
2021/10/12 09:38:58;;;;;;;3.25;0.88;;;;;;;;;;5033767;28;20105;-54
2021/10/12 09:41:25;;;;;;;2.58;1.42;;;;;;;;;;5033086;28;20108;-53
2021/10/12 09:43:52;;;;;;;4.10;1.20;;;;;;;;;;5032057;28;20328;-53
2021/10/12 09:46:23;;;;;;;0.80;0.80;;;;;;;;;;5033769;28;20048;-54
2021/10/12 09:48:50;;;;;;;1.77;1.40;;;;;;;;;;5033536;28;20100;-53
2021/10/12 09:51:17;;;;;;;0.85;0.80;;;;;;;;;;5033393;28;20071;-54
2021/10/12 09:53:44;;;;;;;1.88;1.13;;;;;;;;;;5031733;28;20031;-53
2021/10/12 09:56:11;;;;;;;1.27;0.90;;;;;;;;;;5033260;28;20037;-53
2021/10/12 09:58:37;;;;;;;1.45;1.10;;;;;;;;;;5033074;28;20049;-53
2021/10/12 10:01:05;;;;;;;1.15;0.98;;;;;;;;;;5033150;28;20116;-54
2021/10/12 10:03:31;;;;;;;0.98;0.88;;;;;;;;;;5032227;28;20470;-53
2021/10/12 10:05:59;;;;;;;1.60;0.82;;;;;;;;;;5033081;28;20068;-54
2021/10/12 10:08:29;;;;;;;2.17;1.10;;;;;;;;;;5032762;28;20021;-53
2021/10/12 10:10:56;;;;;;;1.60;1.20;;;;;;;;;;5033229;28;20036;-53
2021/10/12 10:13:22;;;;;;;4.38;1.60;;;;;;;;;;5032996;28;20080;-53
2021/10/12 10:15:49;;;;;;;3.05;1.55;;;;;;;;;;5031933;28;20040;-53
2021/10/12 10:18:17;;;;;;;2.10;1.30;;;;;;;;;;5032991;28;20021;-53
2021/10/12 10:20:43;;;;;;;3.95;1.92;;;;;;;;;;5032755;28;20034;-54
2021/10/12 10:23:09;;;;;;;3.22;1.67;;;;;;;;;;5033008;28;20036;-53
2021/10/12 10:25:41;;;;;;;2.30;1.58;;;;;;;;;;5032492;28;20459;-54
2021/10/12 10:28:16;;;;;;;1.98;1.30;;;;;;;;;;5032590;28;20454;-54
2021/10/12 10:31:01;;;;;;;1.25;0.90;;;;;;;;;;5032383;28;20128;-53
2021/10/12 10:33:35;;;;;;;1.90;1.30;;;;;;;;;;5032220;28;20028;-54
2021/10/12 10:36:02;;;;;;;1.63;1.17;;;;;;;;;;5032752;28;20470;-54
2021/10/12 10:38:29;;;;;;;1.63;1.25;;;;;;;;;;5033036;28;20112;-53
2021/10/12 10:41:04;;;;;;;3.22;1.70;;;;;;;;;;5032951;28;20115;-53
2021/10/12 10:43:49;;;;;;;1.75;1.10;;;;;;;;;;5031833;28;20091;-53
2021/10/12 10:46:34;;;;;;;1.75;1.25;;;;;;;;;;5032773;28;20041;-53
2021/10/12 10:49:26;;;;;;;3.10;1.50;;;;;;;;;;5036798;28;20037;-53
2021/10/12 10:51:56;;;;;;;1.92;1.23;;;;;;;;;;5036826;28;20022;-54
2021/10/12 10:54:37;;;;;;;2.27;1.37;;;;;;;;;;5035501;28;20128;-53
2021/10/12 10:57:09;;;;;;;1.92;1.23;;;;;;;;;;5036579;28;20029;-53
2021/10/12 10:59:35;;;;;;;4.40;1.73;;;;;;;;;;5036658;28;20022;-54
2021/10/12 11:02:01;;;;;;;3.15;1.45;;;;;;;;;;5035569;28;20033;-53
2021/10/12 11:04:44;;;;;;;3.10;1.20;;;;;;;;;;5035470;28;20030;-54
2021/10/12 11:07:10;;;;;;;6.43;1.77;;;;;;;;;;5036562;28;20092;-54
2021/10/12 11:09:43;;;;;;;3.03;1.75;;;;;;;;;;5035959;28;20024;-54
2021/10/12 11:12:19;;;;;;;5.18;1.60;;;;;;;;;;5036122;28;20026;-53
2021/10/12 11:14:45;;;;;;;6.57;1.52;;;;;;;;;;5035174;28;20029;-54
2021/10/12 11:17:11;;;;;;;5.65;1.77;;;;;;;;;;5036119;28;20057;-53
2021/10/12 11:19:56;;;;;;;5.32;1.92;;;;;;;;;;5036310;28;20056;-53
2021/10/12 11:22:22;;;;;;;3.38;2.13;;;;;;;;;;5035819;28;20029;-53
2021/10/12 11:24:49;;;;;;;2.35;1.30;;;;;;;;;;5035190;28;20109;-54
2021/10/12 11:27:15;;;;;;;4.35;1.83;;;;;;;;;;5035779;28;20402;-53
2021/10/12 11:29:41;;;;;;;2.72;1.50;;;;;;;;;;5035703;28;20025;-54
2021/10/12 11:32:07;;;;;;;3.65;1.77;;;;;;;;;;5035815;28;20367;-53
2021/10/12 11:34:34;;;;;;;3.47;1.60;;;;;;;;;;5034451;28;20041;-54
2021/10/12 11:37:13;;;;;;;3.03;1.55;;;;;;;;;;5036147;28;20025;-53
2021/10/12 11:39:39;;;;;;;1.58;1.27;;;;;;;;;;5035903;28;20032;-53
2021/10/12 11:42:06;;;;;;;1.48;1.30;;;;;;;;;;5035642;28;20021;-53
2021/10/12 11:44:33;;;;;;;3.97;1.38;;;;;;;;;;5034640;28;20026;-53
2021/10/12 11:47:02;;;;;;;2.22;1.33;;;;;;;;;;5035768;28;20025;-54
2021/10/12 11:49:28;;;;;;;2.63;1.27;;;;;;;;;;5035977;28;20025;-53
2021/10/12 11:51:54;;;;;;;1.73;1.10;;;;;;;;;;5035250;28;20360;-53
2021/10/12 11:54:22;;;;;;;2.05;0.70;;;;;;;;;;5034494;28;20022;-54
2021/10/12 11:56:48;;;;;;;4.95;1.45;;;;;;;;;;5035824;28;20029;-53
2021/10/12 11:59:14;;;;;;;2.40;1.25;;;;;;;;;;5034971;28;20018;-53
2021/10/12 12:01:42;;;;;;;1.05;0.95;;;;;;;;;;5033618;28;20360;-53
2021/10/12 12:04:08;;;;;;;1.90;1.00;;;;;;;;;;5034624;28;20112;-54
2021/10/12 12:06:42;;;;;;;1.63;1.00;;;;;;;;;;5035449;28;20021;-54
2021/10/12 12:09:16;;;;;;;3.65;0.90;;;;;;;;;;5035190;28;20075;-53
2021/10/12 12:11:42;;;;;;;3.65;1.27;;;;;;;;;;5034613;28;20040;-53
2021/10/12 12:14:09;;;;;;;1.30;0.93;;;;;;;;;;5034036;28;20167;-53
2021/10/12 12:16:34;;;;;;;3.42;0.93;;;;;;;;;;5035105;28;20076;-53
2021/10/12 12:19:22;;;;;;;1.60;1.25;;;;;;;;;;5034854;28;20025;-54
2021/10/12 12:21:48;;;;;;;1.75;1.05;;;;;;;;;;5052599;28;20025;-53
2021/10/12 12:24:21;;;;;;;3.50;0.88;;;;;;;;;;5054088;28;20017;-53
2021/10/12 12:26:48;;;;;;;1.85;1.13;;;;;;;;;;5054643;28;20124;-53
2021/10/12 12:29:15;;;;;;;3.15;1.15;;;;;;;;;;5054723;28;20029;-54
2021/10/12 12:31:46;;;;;;;1.05;0.95;;;;;;;;;;5054681;28;20415;-54
2021/10/12 12:34:12;;;;;;;1.27;0.70;;;;;;;;;;5054051;28;20116;-53
2021/10/12 12:36:38;;;;;;;5.38;1.08;;;;;;;;;;5054719;28;20105;-54
2021/10/12 12:39:08;;;;;;;3.35;1.35;;;;;;;;;;5054634;28;20036;-54
2021/10/12 12:41:38;;;;;;;1.48;1.05;;;;;;;;;;5054436;28;20035;-53
2021/10/12 12:44:04;;;;;;;4.55;0.85;;;;;;;;;;5053949;28;20021;-54
2021/10/12 12:46:30;;;;;;;2.10;0.98;;;;;;;;;;5054441;28;20067;-53
2021/10/12 12:49:10;;;;;;;4.00;1.17;;;;;;;;;;5054674;28;20021;-53
2021/10/12 12:51:47;;;;;;;1.00;0.90;;;;;;;;;;5054121;28;20029;-53
2021/10/12 12:54:31;;;;;;;5.68;1.38;;;;;;;;;;5053504;28;20021;-53
2021/10/12 12:57:05;;;;;;;4.53;1.00;;;;;;;;;;5053927;28;20031;-53
2021/10/12 12:59:31;;;;;;;3.90;1.40;;;;;;;;;;5054242;28;20041;-53
2021/10/12 13:01:57;;;;;;;1.27;1.15;;;;;;;;;;5052162;28;20024;-53
2021/10/12 13:04:23;;;;;;;6.53;1.02;;;;;;;;;;5053523;28;20047;-53
2021/10/12 13:06:49;;;;;;;2.42;0.93;;;;;;;;;;5054072;28;20021;-53
2021/10/12 13:09:15;;;;;;;1.88;1.30;;;;;;;;;;5053358;28;20071;-53
2021/10/12 13:11:46;;;;;;;1.65;0.95;;;;;;;;;;5053573;28;20395;-54
2021/10/12 13:14:13;;;;;;;2.03;1.00;;;;;;;;;;5053049;28;20066;-54
2021/10/12 13:16:39;;;;;;;2.28;1.38;;;;;;;;;;5053994;28;20032;-54
2021/10/12 13:19:05;;;;;;;3.20;1.50;;;;;;;;;;5053499;28;20025;-53
2021/10/12 13:21:32;;;;;;;1.63;1.23;;;;;;;;;;5053500;28;20032;-53
2021/10/12 13:23:58;;;;;;;1.92;1.20;;;;;;;;;;5053214;28;20351;-53
2021/10/12 13:26:25;;;;;;;2.42;1.30;;;;;;;;;;5053615;28;20450;-53
2021/10/12 13:28:51;;;;;;;2.72;1.10;;;;;;;;;;5053455;28;20472;-53
2021/10/12 13:31:18;;;;;;;2.67;1.25;;;;;;;;;;5053292;28;20443;-53
2021/10/12 13:33:44;;;;;;;3.45;1.55;;;;;;;;;;5052447;28;20021;-54
2021/10/12 13:36:10;;;;;;;2.38;1.20;;;;;;;;;;5053678;28;20098;-53
2021/10/12 13:38:36;;;;;;;2.22;1.33;;;;;;;;;;5053604;28;20025;-53
2021/10/12 13:41:04;;;;;;;3.33;1.48;;;;;;;;;;5053682;28;20029;-53
2021/10/12 13:43:30;;;;;;;4.57;1.50;;;;;;;;;;5052416;28;20025;-53
2021/10/12 13:45:56;;;;;;;2.30;1.15;;;;;;;;;;5053200;28;20035;-53
2021/10/12 13:48:22;;;;;;;1.10;1.00;;;;;;;;;;5053128;28;20398;-54
2021/10/12 13:50:48;;;;;;;3.13;1.40;;;;;;;;;;5053449;28;20025;-54
2021/10/12 13:53:14;;;;;;;3.13;1.27;;;;;;;;;;5053135;28;20028;-53
2021/10/12 13:55:40;;;;;;;2.67;1.52;;;;;;;;;;5052125;28;20029;-53
2021/10/12 13:58:06;;;;;;;0.90;0.90;;;;;;;;;;5053426;28;20092;-54
2021/10/12 14:00:34;;;;;;;2.63;1.20;;;;;;;;;;5053218;28;20029;-53
2021/10/12 14:03:01;;;;;;;2.13;1.05;;;;;;;;;;5051319;28;20029;-53
2021/10/12 14:05:29;;;;;;;2.47;1.23;;;;;;;;;;5052121;28;20065;-53
2021/10/12 14:07:55;;;;;;;3.08;1.45;;;;;;;;;;5053384;28;20025;-54
2021/10/12 14:10:21;;;;;;;5.68;2.13;;;;;;;;;;5053184;28;20029;-54
2021/10/12 14:12:47;;;;;;;5.78;1.83;;;;;;;;;;5052746;28;20450;-53
2021/10/12 14:15:14;;;;;;;3.90;1.00;;;;;;;;;;5051677;28;20043;-53
2021/10/12 14:17:41;;;;;;;2.33;1.38;;;;;;;;;;5053117;28;20029;-53
2021/10/12 14:20:07;;;;;;;1.48;1.25;;;;;;;;;;5052433;28;20083;-54
2021/10/12 14:22:33;;;;;;;1.88;1.20;;;;;;;;;;5052884;28;20033;-53
2021/10/12 14:24:59;;;;;;;3.08;1.00;;;;;;;;;;5051735;28;20417;-54
2021/10/12 14:27:25;;;;;;;2.13;1.17;;;;;;;;;;5053147;28;20103;-53
2021/10/12 14:29:53;;;;;;;1.60;1.20;;;;;;;;;;5052618;28;20033;-54
2021/10/12 14:32:19;;;;;;;6.82;2.00;;;;;;;;;;5052548;28;20028;-54
2021/10/12 14:34:45;;;;;;;4.82;1.23;;;;;;;;;;5051917;28;20090;-53
2021/10/12 14:37:11;;;;;;;3.28;1.05;;;;;;;;;;5052626;28;20553;-53
2021/10/12 14:39:38;;;;;;;1.77;1.33;;;;;;;;;;5052683;28;20052;-53
2021/10/12 14:42:05;;;;;;;2.80;1.35;;;;;;;;;;5046825;28;20052;-54